createdAt,value
2024-02-11T00:00:40.474Z,0.78
2024-02-11T00:04:43.384Z,1.70
2024-02-11T00:08:45.008Z,1.59
2024-02-11T00:12:46.763Z,1.08
2024-02-11T00:16:48.609Z,1.82
2024-02-11T00:20:50.157Z,1.05
2024-02-11T00:24:51.786Z,0.82
2024-02-11T00:28:53.269Z,1.79
2024-02-11T00:32:57.935Z,0.99
2024-02-11T00:36:59.746Z,1.53
2024-02-11T00:41:02.176Z,2.07
2024-02-11T00:45:07.531Z,2.24
2024-02-11T00:49:10.398Z,1.98
2024-02-11T00:53:12.190Z,2.92
2024-02-11T00:57:13.797Z,1.72
2024-02-11T01:01:15.282Z,1.87
2024-02-11T01:05:17.217Z,1.51
2024-02-11T01:09:18.792Z,1.67
2024-02-11T01:13:20.279Z,2.06
2024-02-11T01:17:23.380Z,1.76
2024-02-11T01:21:24.864Z,2.00
2024-02-11T01:25:26.419Z,1.14
2024-02-11T01:29:27.880Z,0.88
2024-02-11T01:33:29.617Z,1.24
2024-02-11T01:37:31.252Z,0.66
2024-02-11T01:41:32.776Z,1.69
2024-02-11T01:45:36.713Z,1.95
2024-02-11T01:49:39.215Z,1.15
2024-02-11T01:53:41.998Z,2.19
2024-02-11T01:57:43.916Z,2.61
2024-02-11T02:01:46.259Z,1.48
2024-02-11T02:05:47.963Z,1.07
2024-02-11T02:09:52.603Z,0.42
2024-02-11T02:13:54.322Z,0.63
2024-02-11T02:17:56.042Z,0.64
2024-02-11T02:21:57.885Z,0.79
2024-02-11T02:26:04.207Z,1.04
2024-02-11T02:30:08.969Z,1.08
2024-02-11T02:34:10.685Z,1.05
2024-02-11T02:38:12.280Z,0.69
2024-02-11T02:42:14.003Z,0.72
2024-02-11T02:46:15.499Z,0.46
2024-02-11T02:50:17.192Z,0.49
2024-02-11T02:54:18.918Z,0.51
2024-02-11T02:58:20.408Z,0.61
2024-02-11T03:02:21.890Z,0.79
2024-02-11T03:06:23.510Z,0.54
2024-02-11T03:10:25.114Z,0.16
2024-02-11T03:14:26.583Z,1.00
2024-02-11T03:18:29.204Z,1.49
2024-02-11T03:22:31.249Z,1.17
2024-02-11T03:26:32.737Z,0.19
2024-02-11T03:30:36.585Z,0.23
2024-02-11T03:34:38.097Z,0.85
2024-02-11T03:38:39.574Z,1.08
2024-02-11T03:42:41.227Z,0.35
2024-02-11T03:46:42.829Z,0.71
2024-02-11T03:50:44.527Z,1.30
2024-02-11T03:54:46.443Z,1.69
2024-02-11T03:58:48.038Z,0.73
2024-02-11T04:02:49.489Z,0.93
2024-02-11T04:06:51.300Z,0.41
2024-02-11T04:10:53.568Z,0.75
2024-02-11T04:14:55.782Z,1.10
2024-02-11T04:18:57.572Z,0.78
2024-02-11T04:23:00.574Z,0.48
2024-02-11T04:27:02.444Z,0.62
2024-02-11T04:31:10.375Z,0.61
2024-02-11T04:35:15.995Z,1.30
2024-02-11T04:39:17.879Z,0.89
2024-02-11T04:43:19.390Z,1.16
2024-02-11T04:47:21.509Z,1.14
2024-02-11T04:51:24.030Z,1.75
2024-02-11T04:55:30.491Z,1.36
2024-02-11T04:59:33.699Z,1.14
2024-02-11T05:03:35.162Z,0.97
2024-02-11T05:07:36.758Z,1.54
2024-02-11T05:11:38.520Z,2.59
2024-02-11T05:15:42.183Z,1.00
2024-02-11T05:19:44.032Z,1.95
2024-02-11T05:23:48.536Z,1.55
2024-02-11T05:27:59.833Z,1.53
2024-02-11T05:32:01.329Z,1.29
2024-02-11T05:36:08.964Z,0.79
2024-02-11T05:40:11.674Z,1.58
2024-02-11T05:44:13.225Z,2.22
2024-02-11T05:48:15.405Z,1.31
2024-02-11T05:52:17.199Z,1.29
2024-02-11T05:56:20.198Z,1.68
2024-02-11T06:00:31.642Z,1.54
2024-02-11T06:04:33.265Z,2.43
2024-02-11T06:08:37.044Z,2.11
2024-02-11T06:12:40.579Z,2.07
2024-02-11T06:16:42.116Z,2.05
2024-02-11T06:20:43.726Z,1.33
2024-02-11T06:24:45.432Z,1.61
2024-02-11T06:28:46.940Z,2.04
2024-02-11T06:32:51.480Z,1.62
2024-02-11T06:36:54.152Z,0.80
2024-02-11T06:40:55.720Z,1.77
2024-02-11T06:44:58.088Z,1.95
2024-02-11T06:49:01.712Z,0.96
2024-02-11T06:53:03.399Z,1.25
2024-02-11T06:57:06.322Z,2.21
2024-02-11T07:01:11.910Z,1.73
2024-02-11T07:05:15.378Z,1.27
2024-02-11T07:09:21.807Z,1.81
2024-02-11T07:13:23.374Z,1.84
2024-02-11T07:17:25.249Z,1.20
2024-02-11T07:21:29.308Z,2.06
2024-02-11T07:25:32.002Z,2.37
2024-02-11T07:29:34.590Z,2.09
2024-02-11T07:33:36.204Z,2.25
2024-02-11T07:37:37.812Z,2.05
2024-02-11T07:41:42.222Z,1.22
2024-02-11T07:45:45.013Z,1.34
2024-02-11T07:49:46.912Z,0.76
2024-02-11T07:53:50.373Z,1.05
2024-02-11T07:57:52.429Z,1.45
2024-02-11T08:01:56.526Z,1.09
2024-02-11T08:05:58.131Z,1.11
2024-02-11T08:09:59.642Z,0.61
2024-02-11T08:14:01.278Z,1.07
2024-02-11T08:18:07.637Z,1.34
2024-02-11T08:22:09.847Z,0.80
2024-02-11T08:26:12.022Z,1.21
2024-02-11T08:30:13.788Z,1.22
2024-02-11T08:34:16.280Z,1.23
2024-02-11T08:38:17.878Z,1.76
2024-02-11T08:42:19.737Z,1.62
2024-02-11T08:46:21.269Z,1.41
2024-02-11T08:50:23.595Z,1.09
2024-02-11T08:54:25.676Z,1.44
2024-02-11T08:58:29.051Z,1.08
2024-02-11T09:02:32.306Z,2.24
2024-02-11T09:06:34.226Z,1.45
2024-02-11T09:10:35.756Z,0.98
2024-02-11T09:14:39.552Z,1.72
2024-02-11T09:18:41.276Z,3.15
2024-02-11T09:22:43.238Z,2.49
2024-02-11T09:26:44.882Z,2.72
2024-02-11T09:30:46.354Z,2.29
2024-02-11T09:34:48.662Z,1.81
2024-02-11T09:38:50.231Z,3.30
2024-02-11T09:42:52.250Z,2.00
2024-02-11T09:46:56.362Z,2.51
2024-02-11T09:50:59.683Z,2.71
2024-02-11T09:55:03.808Z,2.56
2024-02-11T09:59:05.726Z,1.71
2024-02-11T10:03:09.106Z,1.46
2024-02-11T10:07:24.024Z,2.14
2024-02-11T10:11:27.765Z,1.22
2024-02-11T10:15:36.119Z,2.68
2024-02-11T10:19:37.590Z,1.85
2024-02-11T10:23:40.817Z,1.20
2024-02-11T10:27:43.364Z,1.38
2024-02-11T10:31:48.184Z,0.84
2024-02-11T10:35:49.869Z,1.32
2024-02-11T10:39:51.695Z,1.65
2024-02-11T10:43:53.652Z,0.81
2024-02-11T10:47:55.206Z,1.20
2024-02-11T10:52:03.778Z,1.65
2024-02-11T10:56:09.726Z,1.45
2024-02-11T11:00:14.082Z,2.08
2024-02-11T11:04:22.063Z,1.44
2024-02-11T11:08:24.680Z,2.39
2024-02-11T11:12:26.451Z,1.71
2024-02-11T11:16:28.852Z,1.83
2024-02-11T11:20:34.525Z,1.41
2024-02-11T11:24:39.393Z,2.77
2024-02-11T11:28:43.692Z,1.30
2024-02-11T11:32:50.380Z,1.42
2024-02-11T11:36:52.753Z,1.16
2024-02-11T11:40:57.680Z,1.69
2024-02-11T11:45:09.095Z,0.96
2024-02-11T11:49:10.682Z,1.21
2024-02-11T11:53:22.295Z,0.41
2024-02-11T11:57:28.672Z,0.58
2024-02-11T12:01:32.039Z,1.02
2024-02-11T12:05:33.738Z,0.87
2024-02-11T12:09:35.492Z,1.09
2024-02-11T12:13:38.910Z,1.52
2024-02-11T12:17:40.632Z,1.90
2024-02-11T12:21:42.264Z,1.86
2024-02-11T12:25:44.164Z,1.57
2024-02-11T12:29:57.651Z,2.02
2024-02-11T12:34:02.216Z,1.68
2024-02-11T12:38:05.044Z,1.91
2024-02-11T12:42:06.787Z,1.75
2024-02-11T12:46:11.407Z,2.13
2024-02-11T12:50:13.013Z,1.81
2024-02-11T12:54:14.855Z,1.60
2024-02-11T12:58:16.462Z,2.04
2024-02-11T13:02:18.600Z,2.10
2024-02-11T13:06:20.247Z,1.10
2024-02-11T13:10:21.780Z,1.17
2024-02-11T13:14:23.571Z,2.02
2024-02-11T13:18:25.374Z,0.86
2024-02-11T13:22:26.952Z,1.38
2024-02-11T13:26:28.658Z,1.73
2024-02-11T13:30:32.080Z,1.81
2024-02-11T13:34:33.587Z,2.70
2024-02-11T13:38:35.101Z,2.64
2024-02-11T13:42:36.721Z,1.36
2024-02-11T13:46:38.191Z,1.87
2024-02-11T13:50:40.590Z,1.62
2024-02-11T13:54:42.369Z,1.75
2024-02-11T13:58:45.242Z,2.66
2024-02-11T14:02:47.155Z,2.50
2024-02-11T14:06:48.809Z,2.32
2024-02-11T14:10:50.329Z,2.97
2024-02-11T14:14:52.819Z,2.07
2024-02-11T14:18:55.296Z,1.80
2024-02-11T14:22:56.963Z,2.08
2024-02-11T14:27:01.348Z,2.23
2024-02-11T14:31:02.960Z,2.49
2024-02-11T14:35:07.921Z,2.80
2024-02-11T14:39:10.011Z,3.07
2024-02-11T14:43:11.491Z,1.98
2024-02-11T14:47:13.297Z,2.71
2024-02-11T14:51:16.635Z,1.90
2024-02-11T14:55:19.190Z,2.22
2024-02-11T14:59:21.283Z,2.50
2024-02-11T15:03:23.359Z,2.31
2024-02-11T15:07:26.614Z,2.86
2024-02-11T15:11:30.231Z,2.07
2024-02-11T15:15:31.769Z,2.27
2024-02-11T15:19:36.253Z,1.77
2024-02-11T15:23:38.462Z,1.67
2024-02-11T15:27:40.549Z,1.92
2024-02-11T15:31:42.242Z,2.20
2024-02-11T15:35:49.864Z,2.11
2024-02-11T15:39:57.532Z,2.95
2024-02-11T15:44:01.407Z,2.56
2024-02-11T15:48:06.205Z,3.68
2024-02-11T15:52:11.004Z,2.17
2024-02-11T15:56:12.892Z,2.27
2024-02-11T16:00:20.903Z,2.40
2024-02-11T16:04:23.931Z,2.17
2024-02-11T16:08:25.641Z,2.44
2024-02-11T16:12:27.686Z,2.54
2024-02-11T16:16:29.301Z,2.98
2024-02-11T16:20:32.309Z,3.02
2024-02-11T16:24:36.190Z,3.08
2024-02-11T16:28:37.994Z,2.32
2024-02-11T16:32:39.725Z,1.55
2024-02-11T16:36:42.867Z,2.00
2024-02-11T16:40:44.531Z,1.67
2024-02-11T16:44:52.060Z,2.28
2024-02-11T16:48:53.607Z,2.45
2024-02-11T16:52:55.181Z,2.09
2024-02-11T16:56:59.307Z,2.59
2024-02-11T17:01:04.417Z,1.48
2024-02-11T17:05:09.410Z,1.55
2024-02-11T17:09:11.065Z,2.00
2024-02-11T17:13:14.555Z,1.92
2024-02-11T17:17:16.948Z,2.61
2024-02-11T17:21:18.778Z,2.39
2024-02-11T17:25:20.360Z,2.10
2024-02-11T17:29:21.916Z,3.15
2024-02-11T17:33:25.055Z,2.31
2024-02-11T17:37:26.631Z,1.94
2024-02-11T17:41:29.650Z,2.04
2024-02-11T17:45:31.263Z,2.99
2024-02-11T17:49:34.995Z,2.76
2024-02-11T17:53:44.868Z,2.59
2024-02-11T17:57:51.680Z,1.93
2024-02-11T18:01:53.915Z,2.04
2024-02-11T18:05:55.995Z,3.15
2024-02-11T18:09:57.812Z,3.73
2024-02-11T18:13:59.722Z,2.55
2024-02-11T18:18:01.797Z,3.05
2024-02-11T18:22:05.241Z,2.51
2024-02-11T18:26:10.299Z,2.75
2024-02-11T18:30:15.006Z,2.93
2024-02-11T18:34:16.543Z,2.60
2024-02-11T18:38:19.893Z,2.90
2024-02-11T18:42:21.748Z,2.70
2024-02-11T18:46:23.387Z,2.61
2024-02-11T18:50:25.739Z,2.94
2024-02-11T18:54:27.583Z,3.07
2024-02-11T18:58:32.727Z,3.30
2024-02-11T19:02:35.941Z,2.64
2024-02-11T19:06:37.701Z,2.30
2024-02-11T19:10:39.756Z,2.40
2024-02-11T19:14:41.301Z,3.88
2024-02-11T19:18:42.818Z,3.04
2024-02-11T19:22:46.331Z,3.52
2024-02-11T19:26:47.843Z,2.37
2024-02-11T19:30:49.306Z,2.02
2024-02-11T19:34:54.781Z,1.70
2024-02-11T19:38:56.932Z,2.56
2024-02-11T19:42:58.926Z,2.43
2024-02-11T19:47:00.705Z,2.29
2024-02-11T19:51:02.533Z,2.37
2024-02-11T19:55:05.237Z,2.81
2024-02-11T19:59:08.221Z,2.37
2024-02-11T20:03:14.407Z,2.29
2024-02-11T20:07:16.041Z,3.42
2024-02-11T20:11:17.656Z,3.58
2024-02-11T20:15:19.577Z,2.52
2024-02-11T20:19:24.006Z,2.73
2024-02-11T20:23:27.144Z,3.27
2024-02-11T20:27:28.830Z,2.86
2024-02-11T20:31:30.344Z,2.44
2024-02-11T20:35:31.969Z,2.83
2024-02-11T20:39:33.672Z,3.33
2024-02-11T20:43:35.472Z,3.52
2024-02-11T20:47:38.347Z,3.71
2024-02-11T20:51:39.871Z,2.73
2024-02-11T20:55:43.123Z,4.25
2024-02-11T20:59:44.684Z,3.46
2024-02-11T21:03:47.074Z,2.69
2024-02-11T21:07:49.110Z,3.36
2024-02-11T21:11:50.622Z,3.22
2024-02-11T21:15:52.353Z,2.93
2024-02-11T21:19:54.107Z,3.83
2024-02-11T21:23:56.419Z,3.20
2024-02-11T21:27:58.983Z,3.81
2024-02-11T21:32:01.757Z,2.79
2024-02-11T21:36:04.833Z,2.56
2024-02-11T21:40:14.978Z,3.12
2024-02-11T21:44:19.988Z,3.30
2024-02-11T21:48:24.073Z,2.71
2024-02-11T21:52:25.722Z,1.96
2024-02-11T21:56:27.309Z,2.71
2024-02-11T22:00:32.235Z,2.90
2024-02-11T22:04:34.264Z,3.48
2024-02-11T22:08:35.982Z,3.78
2024-02-11T22:12:38.612Z,2.97
2024-02-11T22:16:41.127Z,3.35
2024-02-11T22:20:42.975Z,3.57
2024-02-11T22:24:44.480Z,3.27
2024-02-11T22:28:46.011Z,3.82
2024-02-11T22:32:47.608Z,4.14
2024-02-11T22:36:49.244Z,2.70
2024-02-11T22:40:51.588Z,3.22
2024-02-11T22:44:53.094Z,3.80
2024-02-11T22:48:55.310Z,4.22
2024-02-11T22:52:56.956Z,3.72
2024-02-11T22:57:00.054Z,3.39
2024-02-11T23:01:02.746Z,4.26
2024-02-11T23:05:05.917Z,4.07
2024-02-11T23:09:10.352Z,4.28
2024-02-11T23:13:11.810Z,4.99
2024-02-11T23:17:13.293Z,4.71
2024-02-11T23:21:14.781Z,4.42
2024-02-11T23:25:17.412Z,4.82
2024-02-11T23:29:19.053Z,4.94
2024-02-11T23:33:22.727Z,4.75
2024-02-11T23:37:24.245Z,5.14
2024-02-11T23:41:25.766Z,4.98
2024-02-11T23:45:27.678Z,5.68
2024-02-11T23:49:33.016Z,5.50
2024-02-11T23:53:34.931Z,5.43
2024-02-11T23:57:41.392Z,5.67
